メインページ
METAR-TAF:

METAR-TAF

空港 :

Saginaw County H.W. Browne Airport

サギノー, ミシガン州, アメリカ合衆国

緯度: 43-26-00N, 経度: 083-51-45W, 海抜: 183m

現時点の気象観測

当レポートは11分前の06:16(UTC)に作成
の風 3kt
気温 1°C
湿度 93%
気圧 1018 hPa
視程: 16.1km
晴天

METAR: KHYX 040616Z AUTO 08003KT 10SM CLR 01/00 A3005 RMK AO2

時間: 02:27 (06:27 UTC)


TAF: 見つかりません

4,000以上の空港の気象観測と天気予報(METAR報とTAF報)

利用可能な観測所は地図上に黄色い丸と赤い丸で示す。

丸の上にカーソルを重ねると観測所名を参照できる。

次にクリックすると気象観測と天気予報を参照できる。

マップの切り替え:黒色「×」印の緑ボタンをクリックして拡大、「-」印の緑ボタンをクリックして縮小、緑色の三角印をクリックして隣りの地図に切り替え


METAR-TAF: